sensor_id;sensor_type;location;lat;lon;timestamp;noise_LAeq;noise_LA_min;noise_LA_max;noise_LA01;noise_LA95
75037;Laerm;64247;51.540;5.854;2023-05-16T00:29:05;48.57;44.17;68.88;;
75037;Laerm;64247;51.540;5.854;2023-05-16T00:31:06;47.48;45.18;55.01;;
75037;Laerm;64247;51.540;5.854;2023-05-16T00:33:07;46.83;44.58;49.28;;
75037;Laerm;64247;51.540;5.854;2023-05-16T00:35:08;47.60;45.07;57.50;;
75037;Laerm;64247;51.540;5.854;2023-05-16T00:37:12;46.97;44.52;49.31;;
75037;Laerm;64247;51.540;5.854;2023-05-16T00:39:13;46.95;44.86;50.58;;
75037;Laerm;64247;51.540;5.854;2023-05-16T00:41:17;46.88;45.00;48.97;;
75037;Laerm;64247;51.540;5.854;2023-05-16T00:43:17;48.59;45.33;60.40;;
75037;Laerm;64247;51.540;5.854;2023-05-16T00:45:18;48.15;45.45;54.08;;
75037;Laerm;64247;51.540;5.854;2023-05-16T00:47:19;49.55;45.58;66.98;;
75037;Laerm;64247;51.540;5.854;2023-05-16T00:49:20;48.77;45.48;60.06;;
75037;Laerm;64247;51.540;5.854;2023-05-16T00:51:22;48.09;44.61;58.51;;
75037;Laerm;64247;51.540;5.854;2023-05-16T00:53:24;48.95;44.73;61.98;;
75037;Laerm;64247;51.540;5.854;2023-05-16T00:55:25;48.28;44.77;58.27;;
75037;Laerm;64247;51.540;5.854;2023-05-16T00:57:26;47.32;44.60;55.92;;
75037;Laerm;64247;51.540;5.854;2023-05-16T00:59:28;49.54;44.29;65.02;;
75037;Laerm;64247;51.540;5.854;2023-05-16T01:01:29;47.37;44.24;57.55;;
75037;Laerm;64247;51.540;5.854;2023-05-16T01:03:31;48.84;45.69;53.03;;
75037;Laerm;64247;51.540;5.854;2023-05-16T01:05:33;49.97;46.66;59.30;;
75037;Laerm;64247;51.540;5.854;2023-05-16T01:07:34;49.45;47.14;63.20;;
75037;Laerm;64247;51.540;5.854;2023-05-16T01:09:35;49.23;47.34;52.82;;
75037;Laerm;64247;51.540;5.854;2023-05-16T01:12:20;49.33;46.65;56.56;;
75037;Laerm;64247;51.540;5.854;2023-05-16T01:17:28;49.50;47.11;59.47;;
75037;Laerm;64247;51.540;5.854;2023-05-16T01:20:12;50.14;47.29;59.35;;
75037;Laerm;64247;51.540;5.854;2023-05-16T01:28:17;49.81;47.64;61.92;;
75037;Laerm;64247;51.540;5.854;2023-05-16T01:30:19;49.62;47.69;54.52;;
75037;Laerm;64247;51.540;5.854;2023-05-16T01:32:20;49.70;47.54;57.83;;
75037;Laerm;64247;51.540;5.854;2023-05-16T01:34:22;49.78;47.62;59.66;;
75037;Laerm;64247;51.540;5.854;2023-05-16T01:42:00;49.83;47.46;55.72;;
75037;Laerm;64247;51.540;5.854;2023-05-16T01:44:13;49.64;47.87;53.57;;
75037;Laerm;64247;51.540;5.854;2023-05-16T01:46:36;49.90;47.86;59.56;;
75037;Laerm;64247;51.540;5.854;2023-05-16T01:49:34;49.60;47.61;53.48;;
75037;Laerm;64247;51.540;5.854;2023-05-16T01:51:38;49.82;47.45;57.72;;
75037;Laerm;64247;51.540;5.854;2023-05-16T01:53:41;49.85;47.65;52.82;;
75037;Laerm;64247;51.540;5.854;2023-05-16T01:55:50;50.14;47.34;56.14;;
75037;Laerm;64247;51.540;5.854;2023-05-16T01:57:53;49.57;47.56;57.19;;
75037;Laerm;64247;51.540;5.854;2023-05-16T01:59:57;47.10;44.65;51.79;;
75037;Laerm;64247;51.540;5.854;2023-05-16T02:01:58;46.65;44.74;48.59;;
75037;Laerm;64247;51.540;5.854;2023-05-16T02:03:59;47.17;44.89;50.98;;
75037;Laerm;64247;51.540;5.854;2023-05-16T02:06:00;46.59;44.74;52.92;;
75037;Laerm;64247;51.540;5.854;2023-05-16T02:08:02;47.48;44.72;54.84;;
75037;Laerm;64247;51.540;5.854;2023-05-16T02:10:04;46.88;44.80;53.27;;
75037;Laerm;64247;51.540;5.854;2023-05-16T02:12:05;47.32;45.39;50.66;;
75037;Laerm;64247;51.540;5.854;2023-05-16T02:14:06;47.69;45.35;56.62;;
75037;Laerm;64247;51.540;5.854;2023-05-16T02:16:10;47.11;45.06;50.94;;
75037;Laerm;64247;51.540;5.854;2023-05-16T02:18:11;46.98;44.98;52.76;;
75037;Laerm;64247;51.540;5.854;2023-05-16T02:20:12;47.14;45.02;49.58;;
75037;Laerm;64247;51.540;5.854;2023-05-16T02:22:13;48.38;45.48;55.16;;
75037;Laerm;64247;51.540;5.854;2023-05-16T02:24:14;47.47;44.97;58.59;;
75037;Laerm;64247;51.540;5.854;2023-05-16T02:26:15;46.92;45.13;48.55;;
75037;Laerm;64247;51.540;5.854;2023-05-16T02:28:16;47.19;45.18;50.24;;
75037;Laerm;64247;51.540;5.854;2023-05-16T02:30:17;47.24;45.13;61.14;;
75037;Laerm;64247;51.540;5.854;2023-05-16T02:32:17;46.98;44.83;50.74;;
75037;Laerm;64247;51.540;5.854;2023-05-16T02:34:18;46.85;44.73;49.20;;
75037;Laerm;64247;51.540;5.854;2023-05-16T02:36:21;46.86;44.87;53.02;;
75037;Laerm;64247;51.540;5.854;2023-05-16T02:38:22;48.50;44.99;64.22;;
75037;Laerm;64247;51.540;5.854;2023-05-16T02:40:23;47.77;45.28;57.20;;
75037;Laerm;64247;51.540;5.854;2023-05-16T02:42:25;48.35;45.42;55.08;;
75037;Laerm;64247;51.540;5.854;2023-05-16T02:44:30;49.62;45.78;56.67;;
75037;Laerm;64247;51.540;5.854;2023-05-16T02:46:33;48.07;45.31;57.36;;
75037;Laerm;64247;51.540;5.854;2023-05-16T02:48:35;47.87;45.33;56.11;;
75037;Laerm;64247;51.540;5.854;2023-05-16T02:50:36;50.28;45.82;67.61;;
75037;Laerm;64247;51.540;5.854;2023-05-16T02:52:37;57.68;45.30;75.47;;
75037;Laerm;64247;51.540;5.854;2023-05-16T02:54:38;60.61;45.22;78.37;;
75037;Laerm;64247;51.540;5.854;2023-05-16T02:56:38;60.91;45.96;79.67;;
75037;Laerm;64247;51.540;5.854;2023-05-16T02:58:40;61.26;45.38;77.47;;
75037;Laerm;64247;51.540;5.854;2023-05-16T03:00:41;61.72;45.52;78.85;;
75037;Laerm;64247;51.540;5.854;2023-05-16T03:02:43;57.15;45.31;77.11;;
75037;Laerm;64247;51.540;5.854;2023-05-16T03:04:45;56.99;45.85;71.90;;
75037;Laerm;64247;51.540;5.854;2023-05-16T03:06:45;56.69;46.13;70.07;;
75037;Laerm;64247;51.540;5.854;2023-05-16T03:08:46;62.06;46.72;78.87;;
75037;Laerm;64247;51.540;5.854;2023-05-16T03:10:47;62.25;47.11;79.47;;
75037;Laerm;64247;51.540;5.854;2023-05-16T03:12:48;62.17;48.33;76.61;;
75037;Laerm;64247;51.540;5.854;2023-05-16T03:14:49;61.19;46.29;76.70;;
75037;Laerm;64247;51.540;5.854;2023-05-16T03:16:51;57.46;46.61;73.89;;
75037;Laerm;64247;51.540;5.854;2023-05-16T03:18:53;57.10;46.48;71.12;;
75037;Laerm;64247;51.540;5.854;2023-05-16T03:20:53;56.99;46.88;71.33;;
75037;Laerm;64247;51.540;5.854;2023-05-16T03:22:57;56.99;49.56;70.47;;
75037;Laerm;64247;51.540;5.854;2023-05-16T03:24:58;59.37;47.48;79.48;;
75037;Laerm;64247;51.540;5.854;2023-05-16T03:26:59;56.72;46.92;69.38;;
75037;Laerm;64247;51.540;5.854;2023-05-16T03:29:00;56.95;47.10;69.79;;
75037;Laerm;64247;51.540;5.854;2023-05-16T03:31:01;55.13;46.84;66.36;;
75037;Laerm;64247;51.540;5.854;2023-05-16T03:33:02;55.58;46.51;66.17;;
75037;Laerm;64247;51.540;5.854;2023-05-16T03:35:04;56.62;46.31;67.32;;
75037;Laerm;64247;51.540;5.854;2023-05-16T03:37:05;55.71;46.18;67.85;;
75037;Laerm;64247;51.540;5.854;2023-05-16T03:39:06;55.22;47.00;66.98;;
75037;Laerm;64247;51.540;5.854;2023-05-16T03:41:08;54.57;45.80;69.39;;
75037;Laerm;64247;51.540;5.854;2023-05-16T03:43:09;55.00;46.87;68.06;;
75037;Laerm;64247;51.540;5.854;2023-05-16T03:45:10;54.85;47.08;67.86;;
75037;Laerm;64247;51.540;5.854;2023-05-16T03:47:11;54.08;46.67;68.48;;
75037;Laerm;64247;51.540;5.854;2023-05-16T03:49:12;53.19;47.41;66.38;;
75037;Laerm;64247;51.540;5.854;2023-05-16T03:51:13;51.43;46.18;59.05;;
75037;Laerm;64247;51.540;5.854;2023-05-16T03:53:14;51.40;45.62;60.33;;
75037;Laerm;64247;51.540;5.854;2023-05-16T03:55:15;51.46;45.96;60.13;;
75037;Laerm;64247;51.540;5.854;2023-05-16T03:57:16;52.37;46.19;67.80;;
75037;Laerm;64247;51.540;5.854;2023-05-16T03:59:17;55.55;46.99;70.27;;
75037;Laerm;64247;51.540;5.854;2023-05-16T04:01:18;54.70;46.97;67.75;;
75037;Laerm;64247;51.540;5.854;2023-05-16T04:03:18;55.10;46.88;68.19;;
75037;Laerm;64247;51.540;5.854;2023-05-16T04:05:19;54.75;47.41;68.72;;
75037;Laerm;64247;51.540;5.854;2023-05-16T04:07:21;54.56;45.41;70.54;;
75037;Laerm;64247;51.540;5.854;2023-05-16T04:09:22;53.12;46.59;65.13;;
75037;Laerm;64247;51.540;5.854;2023-05-16T04:11:23;54.86;47.59;69.20;;
75037;Laerm;64247;51.540;5.854;2023-05-16T04:13:24;55.51;47.93;67.54;;
75037;Laerm;64247;51.540;5.854;2023-05-16T04:15:25;55.43;48.85;67.25;;
75037;Laerm;64247;51.540;5.854;2023-05-16T04:17:26;56.14;47.61;71.27;;
75037;Laerm;64247;51.540;5.854;2023-05-16T04:19:26;56.20;48.38;71.37;;
75037;Laerm;64247;51.540;5.854;2023-05-16T04:21:28;54.34;47.99;66.85;;
75037;Laerm;64247;51.540;5.854;2023-05-16T04:23:28;53.70;46.06;67.64;;
75037;Laerm;64247;51.540;5.854;2023-05-16T04:25:29;56.12;47.29;69.46;;
75037;Laerm;64247;51.540;5.854;2023-05-16T04:27:30;56.03;46.84;70.54;;
75037;Laerm;64247;51.540;5.854;2023-05-16T04:29:31;57.17;48.57;69.94;;
75037;Laerm;64247;51.540;5.854;2023-05-16T04:31:32;55.28;49.41;68.70;;
75037;Laerm;64247;51.540;5.854;2023-05-16T04:33:33;54.81;47.65;69.08;;
75037;Laerm;64247;51.540;5.854;2023-05-16T04:35:34;53.63;47.65;68.27;;
75037;Laerm;64247;51.540;5.854;2023-05-16T04:37:35;54.93;47.52;68.92;;
75037;Laerm;64247;51.540;5.854;2023-05-16T04:39:36;56.51;48.08;69.05;;
75037;Laerm;64247;51.540;5.854;2023-05-16T04:41:37;53.96;48.63;66.92;;
75037;Laerm;64247;51.540;5.854;2023-05-16T04:43:38;52.29;47.91;63.98;;
75037;Laerm;64247;51.540;5.854;2023-05-16T04:45:40;68.18;48.54;89.12;;
75037;Laerm;64247;51.540;5.854;2023-05-16T04:47:42;54.23;49.03;68.93;;
75037;Laerm;64247;51.540;5.854;2023-05-16T04:49:43;56.62;49.66;69.85;;
75037;Laerm;64247;51.540;5.854;2023-05-16T04:51:45;55.01;48.53;71.15;;
75037;Laerm;64247;51.540;5.854;2023-05-16T04:53:46;55.04;48.62;71.27;;
75037;Laerm;64247;51.540;5.854;2023-05-16T04:55:47;53.75;48.49;68.20;;
75037;Laerm;64247;51.540;5.854;2023-05-16T04:57:48;56.01;48.24;70.74;;
75037;Laerm;64247;51.540;5.854;2023-05-16T04:59:49;54.05;47.85;70.24;;
75037;Laerm;64247;51.540;5.854;2023-05-16T05:01:50;53.61;47.62;69.46;;
75037;Laerm;64247;51.540;5.854;2023-05-16T05:03:50;56.24;48.70;69.89;;
75037;Laerm;64247;51.540;5.854;2023-05-16T05:05:51;57.71;48.97;70.97;;
75037;Laerm;64247;51.540;5.854;2023-05-16T05:07:52;56.19;49.19;70.60;;
75037;Laerm;64247;51.540;5.854;2023-05-16T05:09:53;52.70;47.94;68.39;;
75037;Laerm;64247;51.540;5.854;2023-05-16T05:11:55;56.74;49.02;68.40;;
75037;Laerm;64247;51.540;5.854;2023-05-16T05:13:56;57.52;50.59;69.60;;
75037;Laerm;64247;51.540;5.854;2023-05-16T05:15:57;54.61;49.52;66.98;;
75037;Laerm;64247;51.540;5.854;2023-05-16T05:17:58;54.49;48.56;70.21;;
75037;Laerm;64247;51.540;5.854;2023-05-16T05:19:59;53.96;48.93;69.54;;
75037;Laerm;64247;51.540;5.854;2023-05-16T05:22:00;56.54;49.33;71.46;;
75037;Laerm;64247;51.540;5.854;2023-05-16T05:24:01;56.60;48.63;71.34;;
75037;Laerm;64247;51.540;5.854;2023-05-16T05:26:01;56.83;50.15;70.03;;
75037;Laerm;64247;51.540;5.854;2023-05-16T05:28:03;56.29;50.72;69.19;;
75037;Laerm;64247;51.540;5.854;2023-05-16T05:30:04;54.48;49.44;69.93;;
75037;Laerm;64247;51.540;5.854;2023-05-16T05:32:06;56.41;48.70;71.86;;
75037;Laerm;64247;51.540;5.854;2023-05-16T05:34:07;56.25;48.24;70.05;;
75037;Laerm;64247;51.540;5.854;2023-05-16T05:36:08;56.83;48.29;71.77;;
75037;Laerm;64247;51.540;5.854;2023-05-16T05:38:09;56.35;48.76;71.95;;
75037;Laerm;64247;51.540;5.854;2023-05-16T05:40:11;52.13;47.48;60.41;;
75037;Laerm;64247;51.540;5.854;2023-05-16T05:42:12;57.16;48.13;82.56;;
75037;Laerm;64247;51.540;5.854;2023-05-16T05:44:12;52.59;48.68;61.66;;
75037;Laerm;64247;51.540;5.854;2023-05-16T05:46:14;52.18;48.42;59.25;;
75037;Laerm;64247;51.540;5.854;2023-05-16T05:48:15;51.99;48.31;57.53;;
75037;Laerm;64247;51.540;5.854;2023-05-16T05:50:16;53.44;49.86;60.39;;
75037;Laerm;64247;51.540;5.854;2023-05-16T05:52:17;56.22;48.34;71.23;;
75037;Laerm;64247;51.540;5.854;2023-05-16T05:54:18;54.80;47.69;69.93;;
75037;Laerm;64247;51.540;5.854;2023-05-16T05:56:19;58.15;47.24;73.87;;
75037;Laerm;64247;51.540;5.854;2023-05-16T05:58:21;57.22;49.28;70.23;;
75037;Laerm;64247;51.540;5.854;2023-05-16T06:00:22;54.54;47.49;65.99;;
75037;Laerm;64247;51.540;5.854;2023-05-16T06:02:23;53.99;47.45;66.27;;
75037;Laerm;64247;51.540;5.854;2023-05-16T06:04:23;57.43;48.01;69.37;;
75037;Laerm;64247;51.540;5.854;2023-05-16T06:06:25;56.86;47.60;71.50;;
75037;Laerm;64247;51.540;5.854;2023-05-16T06:08:26;54.68;47.66;69.04;;
75037;Laerm;64247;51.540;5.854;2023-05-16T06:10:26;55.29;47.40;70.72;;
75037;Laerm;64247;51.540;5.854;2023-05-16T06:12:27;55.41;48.27;70.06;;
75037;Laerm;64247;51.540;5.854;2023-05-16T06:14:28;55.07;48.64;70.38;;
75037;Laerm;64247;51.540;5.854;2023-05-16T06:16:29;57.36;48.51;69.98;;
75037;Laerm;64247;51.540;5.854;2023-05-16T06:18:30;56.48;48.14;69.33;;
75037;Laerm;64247;51.540;5.854;2023-05-16T06:20:31;55.42;48.16;68.20;;
75037;Laerm;64247;51.540;5.854;2023-05-16T06:22:32;56.23;46.31;72.85;;
75037;Laerm;64247;51.540;5.854;2023-05-16T06:24:33;55.25;47.91;71.96;;
75037;Laerm;64247;51.540;5.854;2023-05-16T06:26:35;52.72;47.92;62.08;;
75037;Laerm;64247;51.540;5.854;2023-05-16T06:28:35;51.37;48.03;64.36;;
75037;Laerm;64247;51.540;5.854;2023-05-16T06:30:36;51.27;48.47;60.56;;
75037;Laerm;64247;51.540;5.854;2023-05-16T06:32:37;52.53;48.52;63.82;;
75037;Laerm;64247;51.540;5.854;2023-05-16T06:34:40;54.88;47.80;70.90;;
75037;Laerm;64247;51.540;5.854;2023-05-16T06:36:41;56.40;47.69;69.53;;
75037;Laerm;64247;51.540;5.854;2023-05-16T06:38:43;54.99;46.66;69.24;;
75037;Laerm;64247;51.540;5.854;2023-05-16T06:40:45;57.37;49.05;68.25;;
75037;Laerm;64247;51.540;5.854;2023-05-16T06:42:45;55.91;49.69;70.88;;
75037;Laerm;64247;51.540;5.854;2023-05-16T06:44:46;57.20;50.63;70.81;;
75037;Laerm;64247;51.540;5.854;2023-05-16T06:46:47;57.56;49.63;72.23;;
75037;Laerm;64247;51.540;5.854;2023-05-16T06:48:48;53.46;48.77;68.94;;
75037;Laerm;64247;51.540;5.854;2023-05-16T06:50:49;57.47;47.24;72.75;;
75037;Laerm;64247;51.540;5.854;2023-05-16T06:52:53;57.09;47.04;73.45;;
75037;Laerm;64247;51.540;5.854;2023-05-16T06:54:54;55.44;47.62;70.14;;
75037;Laerm;64247;51.540;5.854;2023-05-16T06:56:54;54.99;47.82;71.03;;
75037;Laerm;64247;51.540;5.854;2023-05-16T06:58:56;55.24;46.39;70.07;;
75037;Laerm;64247;51.540;5.854;2023-05-16T07:00:56;60.40;47.00;78.46;;
75037;Laerm;64247;51.540;5.854;2023-05-16T07:02:57;51.76;47.03;60.98;;
75037;Laerm;64247;51.540;5.854;2023-05-16T07:04:58;52.72;46.76;70.92;;
75037;Laerm;64247;51.540;5.854;2023-05-16T07:06:59;54.43;47.02;71.48;;
75037;Laerm;64247;51.540;5.854;2023-05-16T07:09:01;54.67;47.40;71.73;;
75037;Laerm;64247;51.540;5.854;2023-05-16T07:11:02;55.73;47.76;69.89;;
75037;Laerm;64247;51.540;5.854;2023-05-16T07:13:03;56.41;47.75;72.41;;
75037;Laerm;64247;51.540;5.854;2023-05-16T07:15:05;56.01;47.08;71.26;;
75037;Laerm;64247;51.540;5.854;2023-05-16T07:17:06;56.22;46.98;69.34;;
75037;Laerm;64247;51.540;5.854;2023-05-16T07:19:07;55.52;46.69;72.40;;
75037;Laerm;64247;51.540;5.854;2023-05-16T07:21:08;57.25;47.11;71.72;;
75037;Laerm;64247;51.540;5.854;2023-05-16T07:23:09;57.54;48.09;71.57;;
75037;Laerm;64247;51.540;5.854;2023-05-16T07:25:10;57.76;48.23;72.82;;
75037;Laerm;64247;51.540;5.854;2023-05-16T07:27:12;57.40;48.29;73.02;;
75037;Laerm;64247;51.540;5.854;2023-05-16T07:29:13;55.44;47.60;67.67;;
75037;Laerm;64247;51.540;5.854;2023-05-16T07:31:14;53.95;46.97;68.80;;
75037;Laerm;64247;51.540;5.854;2023-05-16T07:33:16;52.62;47.39;66.13;;
75037;Laerm;64247;51.540;5.854;2023-05-16T07:35:17;53.95;46.85;66.32;;
75037;Laerm;64247;51.540;5.854;2023-05-16T07:37:18;54.24;47.08;69.70;;
75037;Laerm;64247;51.540;5.854;2023-05-16T07:39:20;54.15;47.18;69.12;;
75037;Laerm;64247;51.540;5.854;2023-05-16T07:41:21;54.58;47.46;69.08;;
75037;Laerm;64247;51.540;5.854;2023-05-16T07:43:21;55.99;47.60;69.63;;
75037;Laerm;64247;51.540;5.854;2023-05-16T07:45:23;53.53;46.76;67.45;;
75037;Laerm;64247;51.540;5.854;2023-05-16T07:47:23;56.04;46.09;71.44;;
75037;Laerm;64247;51.540;5.854;2023-05-16T07:49:25;58.02;45.94;73.05;;
75037;Laerm;64247;51.540;5.854;2023-05-16T07:51:26;56.54;47.77;68.23;;
75037;Laerm;64247;51.540;5.854;2023-05-16T09:36:53;56.88;45.98;77.11;;
75037;Laerm;64247;51.540;5.854;2023-05-16T09:38:55;53.73;46.76;66.22;;
75037;Laerm;64247;51.540;5.854;2023-05-16T09:40:55;57.58;46.57;70.31;;
75037;Laerm;64247;51.540;5.854;2023-05-16T09:43:05;54.13;46.60;68.58;;
75037;Laerm;64247;51.540;5.854;2023-05-16T09:45:12;54.58;46.94;69.39;;
75037;Laerm;64247;51.540;5.854;2023-05-16T09:47:18;53.08;46.58;65.51;;
75037;Laerm;64247;51.540;5.854;2023-05-16T09:49:19;54.55;47.16;69.14;;
75037;Laerm;64247;51.540;5.854;2023-05-16T09:51:23;56.98;47.76;71.54;;
75037;Laerm;64247;51.540;5.854;2023-05-16T09:53:29;67.65;47.43;81.16;;
75037;Laerm;64247;51.540;5.854;2023-05-16T09:55:31;63.74;50.11;80.93;;
75037;Laerm;64247;51.540;5.854;2023-05-16T09:57:32;60.25;48.58;74.46;;
75037;Laerm;64247;51.540;5.854;2023-05-16T09:59:37;57.39;48.06;69.97;;
75037;Laerm;64247;51.540;5.854;2023-05-16T10:01:39;57.18;47.20;71.31;;
75037;Laerm;64247;51.540;5.854;2023-05-16T10:03:41;56.97;47.68;70.36;;
75037;Laerm;64247;51.540;5.854;2023-05-16T10:05:43;57.00;47.36;70.62;;
75037;Laerm;64247;51.540;5.854;2023-05-16T10:07:44;53.01;46.28;68.69;;
75037;Laerm;64247;51.540;5.854;2023-05-16T10:09:46;56.73;46.91;74.12;;
75037;Laerm;64247;51.540;5.854;2023-05-16T10:11:51;54.46;47.09;68.71;;
75037;Laerm;64247;51.540;5.854;2023-05-16T10:13:53;55.12;47.11;69.97;;
75037;Laerm;64247;51.540;5.854;2023-05-16T10:15:59;52.82;46.49;68.74;;
75037;Laerm;64247;51.540;5.854;2023-05-16T10:18:02;53.87;46.67;68.41;;
75037;Laerm;64247;51.540;5.854;2023-05-16T10:20:10;57.03;46.77;76.59;;
75037;Laerm;64247;51.540;5.854;2023-05-16T10:22:13;55.07;47.96;68.99;;
75037;Laerm;64247;51.540;5.854;2023-05-16T10:24:28;55.33;48.17;69.43;;
75037;Laerm;64247;51.540;5.854;2023-05-16T10:26:29;65.72;48.01;78.67;;
75037;Laerm;64247;51.540;5.854;2023-05-16T10:28:32;55.09;46.79;71.26;;
75037;Laerm;64247;51.540;5.854;2023-05-16T10:30:35;53.16;47.15;69.86;;
75037;Laerm;64247;51.540;5.854;2023-05-16T10:32:38;50.82;46.72;68.52;;
75037;Laerm;64247;51.540;5.854;2023-05-16T10:34:41;54.76;46.35;72.64;;
75037;Laerm;64247;51.540;5.854;2023-05-16T10:36:44;59.19;47.38;74.54;;
75037;Laerm;64247;51.540;5.854;2023-05-16T10:38:47;53.98;46.69;69.17;;
75037;Laerm;64247;51.540;5.854;2023-05-16T10:40:50;57.71;48.25;69.11;;
75037;Laerm;64247;51.540;5.854;2023-05-16T10:42:56;55.90;46.43;70.81;;
75037;Laerm;64247;51.540;5.854;2023-05-16T10:45:19;57.68;46.78;71.78;;
75037;Laerm;64247;51.540;5.854;2023-05-16T10:47:20;59.04;46.28;81.24;;
75037;Laerm;64247;51.540;5.854;2023-05-16T10:49:26;55.65;46.95;72.13;;
75037;Laerm;64247;51.540;5.854;2023-05-16T10:51:37;54.86;46.80;73.35;;
75037;Laerm;64247;51.540;5.854;2023-05-16T10:53:38;55.72;46.91;69.94;;
75037;Laerm;64247;51.540;5.854;2023-05-16T10:55:43;52.74;45.66;75.35;;
75037;Laerm;64247;51.540;5.854;2023-05-16T10:57:46;56.81;46.67;72.19;;
75037;Laerm;64247;51.540;5.854;2023-05-16T10:59:49;49.98;45.44;64.73;;
75037;Laerm;64247;51.540;5.854;2023-05-16T11:01:55;55.83;45.92;68.10;;
75037;Laerm;64247;51.540;5.854;2023-05-16T11:04:16;50.71;45.19;68.81;;
75037;Laerm;64247;51.540;5.854;2023-05-16T11:07:06;50.02;45.76;69.17;;
75037;Laerm;64247;51.540;5.854;2023-05-16T11:11:54;63.36;48.81;80.22;;
75037;Laerm;64247;51.540;5.854;2023-05-16T11:14:02;56.00;47.65;72.32;;
75037;Laerm;64247;51.540;5.854;2023-05-16T11:16:28;53.02;47.42;70.69;;
75037;Laerm;64247;51.540;5.854;2023-05-16T11:18:31;56.05;47.40;68.59;;
75037;Laerm;64247;51.540;5.854;2023-05-16T11:20:36;52.83;46.27;66.51;;
75037;Laerm;64247;51.540;5.854;2023-05-16T11:22:40;58.72;46.40;74.79;;
75037;Laerm;64247;51.540;5.854;2023-05-16T11:25:14;62.86;50.15;78.18;;
75037;Laerm;64247;51.540;5.854;2023-05-16T11:27:21;59.91;48.24;70.55;;
75037;Laerm;64247;51.540;5.854;2023-05-16T11:29:23;62.60;49.45;79.70;;
75037;Laerm;64247;51.540;5.854;2023-05-16T11:31:25;58.06;49.26;73.75;;
75037;Laerm;64247;51.540;5.854;2023-05-16T11:33:26;51.47;47.47;61.80;;
75037;Laerm;64247;51.540;5.854;2023-05-16T11:35:29;54.01;47.78;70.18;;
75037;Laerm;64247;51.540;5.854;2023-05-16T11:37:30;55.66;47.68;68.89;;
75037;Laerm;64247;51.540;5.854;2023-05-16T11:39:31;61.13;47.65;80.27;;
75037;Laerm;64247;51.540;5.854;2023-05-16T11:41:32;60.19;49.26;74.73;;
75037;Laerm;64247;51.540;5.854;2023-05-16T11:43:43;58.73;47.58;70.97;;
75037;Laerm;64247;51.540;5.854;2023-05-16T11:45:44;55.97;47.85;72.22;;
75037;Laerm;64247;51.540;5.854;2023-05-16T11:47:48;62.81;47.14;78.78;;
75037;Laerm;64247;51.540;5.854;2023-05-16T11:49:49;56.10;47.38;72.16;;
75037;Laerm;64247;51.540;5.854;2023-05-16T11:51:53;56.02;47.61;71.96;;
75037;Laerm;64247;51.540;5.854;2023-05-16T11:53:56;63.90;49.33;78.05;;
75037;Laerm;64247;51.540;5.854;2023-05-16T11:55:58;52.49;47.81;65.50;;
75037;Laerm;64247;51.540;5.854;2023-05-16T11:58:01;58.17;47.95;74.51;;
75037;Laerm;64247;51.540;5.854;2023-05-16T12:00:23;59.37;48.12;77.87;;
75037;Laerm;64247;51.540;5.854;2023-05-16T12:02:28;55.89;45.67;70.02;;
75037;Laerm;64247;51.540;5.854;2023-05-16T12:04:29;52.83;46.68;68.11;;
75037;Laerm;64247;51.540;5.854;2023-05-16T12:06:31;52.52;45.71;68.88;;
75037;Laerm;64247;51.540;5.854;2023-05-16T12:08:32;53.69;46.11;68.59;;
75037;Laerm;64247;51.540;5.854;2023-05-16T12:10:33;54.24;47.34;66.99;;
75037;Laerm;64247;51.540;5.854;2023-05-16T12:12:36;61.74;49.57;74.94;;
75037;Laerm;64247;51.540;5.854;2023-05-16T12:14:37;57.13;47.14;69.76;;
75037;Laerm;64247;51.540;5.854;2023-05-16T12:16:39;57.61;48.39;72.74;;
75037;Laerm;64247;51.540;5.854;2023-05-16T12:18:44;56.01;46.75;69.27;;
75037;Laerm;64247;51.540;5.854;2023-05-16T12:20:45;53.93;47.97;68.34;;
75037;Laerm;64247;51.540;5.854;2023-05-16T12:22:46;54.92;48.02;70.91;;
75037;Laerm;64247;51.540;5.854;2023-05-16T12:24:47;54.45;48.54;68.27;;
75037;Laerm;64247;51.540;5.854;2023-05-16T12:26:47;55.49;49.13;68.59;;
75037;Laerm;64247;51.540;5.854;2023-05-16T12:28:53;54.49;48.43;68.45;;
75037;Laerm;64247;51.540;5.854;2023-05-16T12:30:56;51.79;46.88;62.94;;
75037;Laerm;64247;51.540;5.854;2023-05-16T12:35:22;52.15;47.09;66.67;;
75037;Laerm;64247;51.540;5.854;2023-05-16T12:37:23;55.95;48.62;67.03;;
75037;Laerm;64247;51.540;5.854;2023-05-16T12:39:24;60.05;48.81;78.94;;
75037;Laerm;64247;51.540;5.854;2023-05-16T12:41:25;54.12;47.73;68.45;;
75037;Laerm;64247;51.540;5.854;2023-05-16T12:43:26;54.19;46.83;67.20;;
75037;Laerm;64247;51.540;5.854;2023-05-16T12:45:28;52.87;46.76;67.66;;
75037;Laerm;64247;51.540;5.854;2023-05-16T12:47:36;51.63;46.76;66.14;;
75037;Laerm;64247;51.540;5.854;2023-05-16T12:49:45;52.97;47.39;69.58;;
75037;Laerm;64247;51.540;5.854;2023-05-16T12:51:54;49.95;45.50;63.31;;
75037;Laerm;64247;51.540;5.854;2023-05-16T12:54:06;51.09;45.41;64.67;;
75037;Laerm;64247;51.540;5.854;2023-05-16T12:56:12;64.01;46.09;81.35;;
75037;Laerm;64247;51.540;5.854;2023-05-16T12:58:16;55.60;47.06;72.29;;
75037;Laerm;64247;51.540;5.854;2023-05-16T13:00:19;51.38;47.33;60.15;;
75037;Laerm;64247;51.540;5.854;2023-05-16T13:02:20;56.45;47.12;72.89;;
75037;Laerm;64247;51.540;5.854;2023-05-16T13:04:22;56.50;48.05;69.11;;
75037;Laerm;64247;51.540;5.854;2023-05-16T13:06:23;57.53;47.54;69.83;;
75037;Laerm;64247;51.540;5.854;2023-05-16T13:08:24;54.62;47.23;67.66;;
75037;Laerm;64247;51.540;5.854;2023-05-16T13:10:25;54.34;46.23;69.99;;
75037;Laerm;64247;51.540;5.854;2023-05-16T13:12:27;53.71;47.37;69.23;;
75037;Laerm;64247;51.540;5.854;2023-05-16T13:14:28;60.40;47.68;75.35;;
75037;Laerm;64247;51.540;5.854;2023-05-16T13:16:28;57.52;48.50;72.56;;
75037;Laerm;64247;51.540;5.854;2023-05-16T13:18:29;50.97;46.74;63.90;;
75037;Laerm;64247;51.540;5.854;2023-05-16T13:20:30;54.62;47.93;68.74;;
75037;Laerm;64247;51.540;5.854;2023-05-16T13:22:32;53.70;46.82;68.01;;
75037;Laerm;64247;51.540;5.854;2023-05-16T13:24:32;52.10;47.36;65.92;;
75037;Laerm;64247;51.540;5.854;2023-05-16T13:26:33;53.44;47.22;66.72;;
75037;Laerm;64247;51.540;5.854;2023-05-16T13:28:34;60.23;48.73;74.46;;
75037;Laerm;64247;51.540;5.854;2023-05-16T13:30:36;56.24;47.83;68.84;;
75037;Laerm;64247;51.540;5.854;2023-05-16T13:32:36;52.41;46.83;64.20;;
75037;Laerm;64247;51.540;5.854;2023-05-16T13:34:37;57.69;48.04;73.19;;
75037;Laerm;64247;51.540;5.854;2023-05-16T13:36:38;55.85;49.27;69.17;;
75037;Laerm;64247;51.540;5.854;2023-05-16T13:38:39;62.27;49.77;75.63;;
75037;Laerm;64247;51.540;5.854;2023-05-16T13:40:41;59.11;48.65;73.16;;
75037;Laerm;64247;51.540;5.854;2023-05-16T13:42:42;57.86;47.95;75.05;;
75037;Laerm;64247;51.540;5.854;2023-05-16T13:44:43;53.38;47.83;68.71;;
75037;Laerm;64247;51.540;5.854;2023-05-16T13:46:44;55.98;47.78;70.40;;
75037;Laerm;64247;51.540;5.854;2023-05-16T13:48:45;55.35;48.04;69.45;;
75037;Laerm;64247;51.540;5.854;2023-05-16T13:50:46;52.03;46.00;65.89;;
75037;Laerm;64247;51.540;5.854;2023-05-16T13:52:47;52.28;46.45;67.55;;
75037;Laerm;64247;51.540;5.854;2023-05-16T13:54:48;51.91;46.36;66.44;;
75037;Laerm;64247;51.540;5.854;2023-05-16T13:56:49;50.56;46.53;63.08;;
75037;Laerm;64247;51.540;5.854;2023-05-16T13:58:50;49.61;46.18;58.91;;